createdAt,value
2022-12-19T00:00:03.363Z,22.14
2022-12-19T00:02:32.237Z,21.57
2022-12-19T00:04:59.019Z,20.95
2022-12-19T00:07:26.417Z,20.46
2022-12-19T00:09:52.901Z,21.20
2022-12-19T00:12:19.483Z,19.88
2022-12-19T00:14:45.898Z,20.65
2022-12-19T00:17:12.239Z,19.76
2022-12-19T00:19:38.621Z,20.30
2022-12-19T00:22:10.912Z,20.85
2022-12-19T00:24:42.571Z,20.52
2022-12-19T00:27:09.063Z,20.47
2022-12-19T00:29:35.394Z,21.11
2022-12-19T00:32:03.497Z,20.97
2022-12-19T00:34:29.902Z,20.13
2022-12-19T00:36:56.367Z,20.97
2022-12-19T00:39:23.001Z,19.42
2022-12-19T00:41:52.543Z,20.63
2022-12-19T00:44:18.886Z,20.71
2022-12-19T00:46:52.974Z,20.32
2022-12-19T00:49:20.639Z,21.23
2022-12-19T00:51:49.336Z,20.46
2022-12-19T00:54:15.756Z,20.73
2022-12-19T00:56:44.428Z,21.65
2022-12-19T00:59:10.882Z,21.16
2022-12-19T01:01:37.525Z,20.77
2022-12-19T01:04:27.607Z,20.50
2022-12-19T01:06:50.602Z,20.84
2022-12-19T01:09:20.834Z,21.46
2022-12-19T01:11:47.254Z,21.77
2022-12-19T01:14:18.949Z,21.66
2022-12-19T01:16:48.191Z,21.43
2022-12-19T01:19:14.717Z,21.67
2022-12-19T01:21:43.414Z,21.52
2022-12-19T01:24:10.222Z,21.86
2022-12-19T01:26:36.556Z,20.78
2022-12-19T01:29:03.951Z,20.31
2022-12-19T01:31:37.904Z,19.85
2022-12-19T01:34:04.445Z,19.51
2022-12-19T01:36:31.961Z,20.18
2022-12-19T01:38:58.304Z,19.77
2022-12-19T01:41:25.274Z,20.87
2022-12-19T01:43:52.133Z,19.49
2022-12-19T01:46:18.524Z,20.19
2022-12-19T01:48:48.107Z,19.76
2022-12-19T01:51:14.533Z,20.04
2022-12-19T01:53:48.799Z,19.68
2022-12-19T01:56:16.197Z,20.07
2022-12-19T01:58:45.104Z,19.56
2022-12-19T02:01:11.771Z,19.90
2022-12-19T02:03:41.260Z,20.10
2022-12-19T02:06:07.985Z,20.30
2022-12-19T02:08:34.699Z,19.84
2022-12-19T02:11:01.382Z,20.02
2022-12-19T02:13:27.958Z,19.89
2022-12-19T02:15:55.793Z,19.23
2022-12-19T02:18:23.282Z,18.56
2022-12-19T02:20:49.672Z,18.98
2022-12-19T02:23:16.005Z,19.27
2022-12-19T02:25:42.496Z,19.60
2022-12-19T02:28:08.872Z,19.91
2022-12-19T02:30:35.403Z,19.73
2022-12-19T02:33:01.826Z,20.09
2022-12-19T02:35:28.286Z,19.85
2022-12-19T02:37:54.660Z,18.91
2022-12-19T02:40:23.470Z,19.59
2022-12-19T02:42:50.420Z,19.66
2022-12-19T02:45:22.686Z,19.16
2022-12-19T02:47:57.364Z,18.13
2022-12-19T02:50:25.168Z,17.46
2022-12-19T02:52:51.835Z,17.00
2022-12-19T02:55:18.580Z,17.47
2022-12-19T02:57:45.173Z,17.83
2022-12-19T03:00:14.382Z,16.23
2022-12-19T03:02:41.163Z,17.43
2022-12-19T03:05:10.568Z,17.73
2022-12-19T03:07:39.454Z,17.21
2022-12-19T03:10:05.919Z,15.95
2022-12-19T03:12:32.285Z,15.22
2022-12-19T03:14:58.668Z,14.58
2022-12-19T03:17:25.782Z,14.64
2022-12-19T03:19:52.171Z,15.01
2022-12-19T03:22:18.556Z,14.87
2022-12-19T03:24:45.152Z,14.87
2022-12-19T03:27:11.722Z,14.46
2022-12-19T03:29:38.110Z,14.84
2022-12-19T03:32:04.567Z,14.54
2022-12-19T03:34:34.008Z,13.92
2022-12-19T03:37:00.583Z,14.00
2022-12-19T03:39:27.284Z,13.47
2022-12-19T03:41:53.613Z,13.29
2022-12-19T03:44:20.129Z,13.25
2022-12-19T03:46:48.786Z,13.08
2022-12-19T03:49:15.161Z,13.18
2022-12-19T03:51:41.710Z,13.59
2022-12-19T03:54:15.398Z,14.08
2022-12-19T03:56:45.195Z,14.39
2022-12-19T03:59:12.676Z,13.73
2022-12-19T04:01:39.149Z,13.91
2022-12-19T04:04:05.685Z,14.12
2022-12-19T04:06:32.467Z,13.11
2022-12-19T04:09:09.671Z,13.59
2022-12-19T04:11:36.350Z,14.30
2022-12-19T04:14:02.747Z,13.24
2022-12-19T04:16:31.631Z,12.25
2022-12-19T04:18:58.174Z,12.14
2022-12-19T04:21:24.617Z,11.87
2022-12-19T04:23:51.262Z,11.67
2022-12-19T04:26:18.611Z,11.40
2022-12-19T04:28:45.006Z,11.34
2022-12-19T04:31:11.398Z,11.78
2022-12-19T04:33:37.904Z,11.42
2022-12-19T04:36:04.435Z,10.96
2022-12-19T04:38:30.871Z,11.18
2022-12-19T04:40:57.499Z,11.26
2022-12-19T04:43:24.999Z,11.76
2022-12-19T04:45:56.974Z,11.69
2022-12-19T04:48:25.363Z,11.42
2022-12-19T04:50:52.310Z,11.08
2022-12-19T04:53:18.771Z,10.60
2022-12-19T04:55:45.207Z,10.67
2022-12-19T04:58:20.290Z,10.97
2022-12-19T05:00:48.541Z,11.59
2022-12-19T05:03:16.134Z,10.82
2022-12-19T05:05:42.893Z,11.23
2022-12-19T05:08:10.180Z,10.92
2022-12-19T05:10:38.784Z,10.66
2022-12-19T05:13:05.402Z,11.44
2022-12-19T05:15:34.112Z,11.13
2022-12-19T05:18:02.103Z,11.25
2022-12-19T05:20:31.011Z,11.35
2022-12-19T05:23:03.124Z,10.80
2022-12-19T05:25:30.777Z,10.77
2022-12-19T05:27:57.153Z,10.65
2022-12-19T05:30:25.778Z,10.93
2022-12-19T05:32:53.227Z,10.43
2022-12-19T05:35:19.882Z,10.15
2022-12-19T05:37:46.294Z,9.48
2022-12-19T05:40:12.799Z,9.15
2022-12-19T05:42:39.260Z,9.63
2022-12-19T05:45:05.656Z,10.06
2022-12-19T05:47:32.156Z,9.25
2022-12-19T05:49:58.533Z,9.73
2022-12-19T05:52:24.882Z,9.70
2022-12-19T05:54:52.103Z,8.41
2022-12-19T05:57:18.827Z,8.93
2022-12-19T05:59:46.520Z,9.62
2022-12-19T06:02:14.355Z,9.92
2022-12-19T06:04:41.855Z,9.17
2022-12-19T06:07:08.568Z,8.93
2022-12-19T06:09:35.264Z,8.44
2022-12-19T06:12:04.193Z,8.48
2022-12-19T06:14:31.079Z,8.12
2022-12-19T06:16:57.571Z,8.03
2022-12-19T06:19:24.043Z,7.57
2022-12-19T06:21:50.421Z,8.76
2022-12-19T06:24:16.895Z,10.43
2022-12-19T06:26:43.245Z,10.99
2022-12-19T06:29:09.941Z,11.37
2022-12-19T06:31:36.449Z,9.51
2022-12-19T06:34:05.168Z,8.26
2022-12-19T06:36:31.662Z,8.95
2022-12-19T06:39:00.651Z,10.04
2022-12-19T06:41:27.188Z,9.15
2022-12-19T06:43:54.372Z,8.17
2022-12-19T06:46:22.774Z,7.94
2022-12-19T06:48:49.558Z,8.38
2022-12-19T06:51:16.156Z,10.77
2022-12-19T06:53:46.094Z,10.66
2022-12-19T06:56:12.914Z,10.17
2022-12-19T06:58:39.412Z,8.50
2022-12-19T07:01:05.884Z,7.75
2022-12-19T07:03:32.514Z,7.17
2022-12-19T07:05:59.478Z,7.18
2022-12-19T07:08:28.354Z,6.79
2022-12-19T07:10:54.924Z,7.92
2022-12-19T07:13:21.492Z,7.66
2022-12-19T07:15:48.632Z,7.56
2022-12-19T07:18:15.236Z,7.09
2022-12-19T07:20:45.231Z,6.85
2022-12-19T07:23:11.949Z,6.41
2022-12-19T07:25:38.421Z,6.35
2022-12-19T07:28:06.940Z,6.65
2022-12-19T07:30:33.552Z,6.49
2022-12-19T07:33:00.397Z,6.56
2022-12-19T07:35:27.298Z,7.02
2022-12-19T07:37:53.871Z,7.10
2022-12-19T07:40:20.647Z,7.91
2022-12-19T07:42:47.057Z,7.99
2022-12-19T07:45:14.044Z,8.81
2022-12-19T07:47:41.500Z,7.98
2022-12-19T07:50:07.892Z,7.08
2022-12-19T07:52:34.288Z,6.60
2022-12-19T07:55:00.671Z,6.05
2022-12-19T07:57:27.119Z,6.65
2022-12-19T07:59:54.068Z,6.41
2022-12-19T08:02:22.126Z,6.26
2022-12-19T08:04:49.204Z,5.92
2022-12-19T08:07:17.249Z,5.85
2022-12-19T08:09:44.068Z,5.80
2022-12-19T08:12:10.699Z,6.34
2022-12-19T08:14:38.143Z,6.26
2022-12-19T08:17:20.106Z,6.39
2022-12-19T08:19:47.173Z,6.00
2022-12-19T08:22:13.864Z,6.58
2022-12-19T08:24:40.449Z,5.99
2022-12-19T08:27:06.856Z,5.73
2022-12-19T08:29:33.643Z,5.69
2022-12-19T08:32:00.037Z,5.67
2022-12-19T08:34:26.678Z,5.56
2022-12-19T08:36:53.425Z,5.71
2022-12-19T08:39:19.954Z,6.51
2022-12-19T08:41:46.532Z,6.46
2022-12-19T08:44:12.995Z,5.99
2022-12-19T08:46:41.638Z,5.49
2022-12-19T08:49:13.588Z,5.70
2022-12-19T08:51:40.194Z,5.73
2022-12-19T08:54:07.872Z,5.75
2022-12-19T08:56:38.217Z,5.57
2022-12-19T08:59:13.557Z,6.09
2022-12-19T09:01:42.634Z,6.00
2022-12-19T09:06:02.642Z,6.51
2022-12-19T09:06:56.239Z,6.96
2022-12-19T09:09:22.698Z,6.85
2022-12-19T09:11:51.537Z,7.01
2022-12-19T09:14:21.405Z,7.48
2022-12-19T09:16:48.047Z,7.88
2022-12-19T09:19:14.612Z,8.36
2022-12-19T09:21:41.184Z,8.37
2022-12-19T09:24:08.192Z,8.34
2022-12-19T09:26:34.849Z,7.79
2022-12-19T09:29:01.238Z,7.74
2022-12-19T09:31:28.943Z,7.55
2022-12-19T09:33:55.430Z,7.65
2022-12-19T09:36:23.963Z,7.98
2022-12-19T09:38:50.759Z,8.43
2022-12-19T09:41:19.500Z,8.16
2022-12-19T09:43:45.940Z,7.74
2022-12-19T09:46:13.026Z,8.01
2022-12-19T09:48:40.495Z,7.54
2022-12-19T09:51:09.942Z,7.45
2022-12-19T09:53:37.506Z,7.29
2022-12-19T09:56:03.908Z,7.35
2022-12-19T09:58:30.317Z,7.30
2022-12-19T10:01:00.033Z,7.57
2022-12-19T10:03:27.260Z,7.49
2022-12-19T10:07:07.809Z,7.48
2022-12-19T10:09:06.584Z,7.31
2022-12-19T10:12:47.823Z,7.38
2022-12-19T10:14:17.605Z,7.68
2022-12-19T10:16:56.496Z,8.29
2022-12-19T10:19:30.717Z,7.83
2022-12-19T10:22:17.632Z,8.27
2022-12-19T10:24:43.615Z,7.48
2022-12-19T10:27:21.632Z,7.10
2022-12-19T10:29:49.010Z,6.44
2022-12-19T10:32:17.577Z,6.24
2022-12-19T10:34:44.121Z,7.71
2022-12-19T10:37:28.964Z,7.81
2022-12-19T10:39:57.024Z,6.99
2022-12-19T10:42:23.740Z,7.00
2022-12-19T10:44:50.270Z,7.84
2022-12-19T10:47:16.675Z,7.25
2022-12-19T10:49:43.064Z,7.38
2022-12-19T10:52:10.506Z,7.70
2022-12-19T10:54:36.880Z,7.60
2022-12-19T10:57:03.551Z,7.24
2022-12-19T10:59:29.940Z,7.14
2022-12-19T11:02:00.528Z,6.64
2022-12-19T11:04:27.868Z,6.18
2022-12-19T11:06:54.457Z,6.18
2022-12-19T11:09:21.339Z,6.36
2022-12-19T11:15:25.415Z,6.13
2022-12-19T11:20:01.667Z,5.72
2022-12-19T11:24:56.117Z,5.35
2022-12-19T11:29:16.461Z,5.29
2022-12-19T11:29:30.357Z,5.43
2022-12-19T11:29:32.820Z,5.28
2022-12-19T11:29:34.561Z,5.04
2022-12-19T11:34:04.880Z,5.32
2022-12-19T11:36:32.445Z,5.27
2022-12-19T11:38:58.817Z,5.48
2022-12-19T11:41:25.169Z,5.36
2022-12-19T11:43:52.548Z,5.41
2022-12-19T11:46:22.076Z,5.79
2022-12-19T11:48:50.822Z,6.06
2022-12-19T11:51:17.203Z,4.94
2022-12-19T11:53:44.038Z,4.65
2022-12-19T11:56:16.484Z,5.01
2022-12-19T11:58:43.280Z,5.40
2022-12-19T12:01:10.301Z,5.80
2022-12-19T12:03:37.360Z,5.82
2022-12-19T12:06:03.807Z,5.72
2022-12-19T12:08:56.819Z,5.79
2022-12-19T12:17:40.111Z,5.60
2022-12-19T12:21:44.188Z,6.04
2022-12-19T12:30:34.869Z,6.10
2022-12-19T12:31:17.849Z,5.54
2022-12-19T12:31:19.171Z,5.42
2022-12-19T12:31:46.926Z,5.53
2022-12-19T12:31:49.078Z,5.62
2022-12-19T12:31:51.535Z,5.66
2022-12-19T12:35:54.205Z,6.65
2022-12-19T12:39:10.938Z,5.66
2022-12-19T12:41:40.022Z,5.50
2022-12-19T12:44:09.621Z,5.28
2022-12-19T12:46:36.035Z,5.36
2022-12-19T12:49:02.717Z,5.35
2022-12-19T12:51:29.423Z,5.57
2022-12-19T12:53:55.905Z,5.74
2022-12-19T12:56:22.295Z,5.86
2022-12-19T12:58:48.748Z,5.69
2022-12-19T13:01:17.624Z,5.55
2022-12-19T13:03:44.160Z,5.52
2022-12-19T13:06:17.610Z,5.72
2022-12-19T13:08:44.989Z,5.64
2022-12-19T13:11:11.351Z,5.58
2022-12-19T13:13:38.725Z,5.84
2022-12-19T13:16:05.104Z,5.42
2022-12-19T13:18:31.500Z,5.30
2022-12-19T13:20:57.988Z,5.27
2022-12-19T13:23:24.660Z,5.86
2022-12-19T13:25:51.037Z,5.82
2022-12-19T13:28:19.429Z,5.71
2022-12-19T13:31:13.547Z,5.58
2022-12-19T13:33:32.502Z,5.40
2022-12-19T13:39:10.532Z,5.75
2022-12-19T13:39:59.353Z,5.71
2022-12-19T13:41:31.952Z,5.58
2022-12-19T13:44:00.467Z,5.78
2022-12-19T13:46:28.959Z,5.94
2022-12-19T13:49:02.596Z,5.87
2022-12-19T13:51:28.982Z,5.43
2022-12-19T13:53:59.539Z,5.65
2022-12-19T13:56:28.687Z,5.70
2022-12-19T13:58:55.610Z,5.78
2022-12-19T14:01:23.509Z,5.52
2022-12-19T14:03:50.257Z,5.29
2022-12-19T14:06:21.265Z,5.56
2022-12-19T14:08:47.689Z,5.29
2022-12-19T14:12:10.769Z,5.50
2022-12-19T14:14:27.863Z,5.21
2022-12-19T14:16:54.908Z,5.93
2022-12-19T14:19:21.639Z,5.61
2022-12-19T14:22:10.741Z,6.17
2022-12-19T14:24:34.701Z,6.85
2022-12-19T14:28:22.204Z,6.57
2022-12-19T14:30:28.805Z,8.39
2022-12-19T14:33:44.434Z,12.34
2022-12-19T14:36:06.580Z,11.65
2022-12-19T14:39:19.526Z,8.48
2022-12-19T14:41:09.116Z,7.84
2022-12-19T14:43:59.366Z,7.72
2022-12-19T14:54:09.039Z,7.45
2022-12-19T14:54:24.919Z,6.91
2022-12-19T14:54:26.181Z,6.63
2022-12-19T14:58:50.465Z,6.90
2022-12-19T15:00:34.138Z,6.99
2022-12-19T15:03:03.521Z,7.43
2022-12-19T15:05:30.067Z,7.93
2022-12-19T15:07:56.536Z,7.83
2022-12-19T15:11:09.050Z,7.67
2022-12-19T15:14:51.744Z,7.42
2022-12-19T15:15:59.438Z,7.04
2022-12-19T15:18:26.571Z,6.91
2022-12-19T15:20:53.309Z,7.09
2022-12-19T15:23:22.405Z,7.09
2022-12-19T15:26:06.587Z,6.89
2022-12-19T15:28:33.584Z,7.92
2022-12-19T15:30:59.988Z,8.35
2022-12-19T15:33:26.413Z,7.33
2022-12-19T15:35:52.872Z,6.66
2022-12-19T15:38:19.362Z,7.32
2022-12-19T15:40:45.730Z,6.47
2022-12-19T15:43:37.072Z,6.37
2022-12-19T15:45:58.728Z,6.84
2022-12-19T15:48:25.318Z,6.67
2022-12-19T15:50:51.888Z,6.53
2022-12-19T15:53:24.475Z,6.48
2022-12-19T15:55:58.682Z,6.44
2022-12-19T15:58:25.035Z,6.16
2022-12-19T16:00:53.899Z,5.99
2022-12-19T16:03:23.792Z,6.17
2022-12-19T16:05:51.184Z,6.11
2022-12-19T16:08:18.480Z,6.62
2022-12-19T16:10:44.931Z,7.04
2022-12-19T16:13:11.323Z,6.49
2022-12-19T16:15:37.778Z,6.32
2022-12-19T16:18:04.167Z,6.58
2022-12-19T16:20:30.881Z,6.84
2022-12-19T16:23:00.582Z,6.80
2022-12-19T16:25:27.049Z,7.35
2022-12-19T16:27:54.395Z,6.86
2022-12-19T16:30:22.200Z,6.53
2022-12-19T16:32:48.575Z,6.46
2022-12-19T16:35:17.513Z,6.56
2022-12-19T16:37:51.753Z,7.52
2022-12-19T16:40:18.519Z,7.47
2022-12-19T16:42:45.078Z,6.34
2022-12-19T16:45:11.625Z,6.80
2022-12-19T16:47:38.013Z,6.53
2022-12-19T16:50:04.396Z,6.64
2022-12-19T16:52:31.196Z,7.32
2022-12-19T16:54:57.759Z,7.05
2022-12-19T16:57:24.340Z,6.26
2022-12-19T16:59:51.942Z,6.96
2022-12-19T17:02:18.449Z,8.31
2022-12-19T17:04:50.429Z,9.85
2022-12-19T17:07:20.029Z,9.18
2022-12-19T17:09:46.408Z,8.76
2022-12-19T17:12:13.009Z,6.85
2022-12-19T17:14:39.404Z,7.64
2022-12-19T17:17:05.998Z,9.34
2022-12-19T17:19:35.278Z,10.29
2022-12-19T17:22:01.666Z,9.38
2022-12-19T17:24:28.282Z,10.20
2022-12-19T17:26:57.105Z,11.65
2022-12-19T17:29:25.786Z,10.00
2022-12-19T17:31:52.222Z,9.81
2022-12-19T17:34:19.810Z,9.22
2022-12-19T17:36:46.809Z,9.62
2022-12-19T17:39:14.697Z,8.97
2022-12-19T17:41:43.337Z,7.54
2022-12-19T17:44:09.842Z,7.88
2022-12-19T17:46:36.231Z,8.06
2022-12-19T17:49:02.607Z,7.93
2022-12-19T17:51:29.070Z,8.24
2022-12-19T17:53:55.993Z,8.50
2022-12-19T17:56:22.422Z,9.35
2022-12-19T17:58:50.629Z,10.04
2022-12-19T18:01:18.319Z,7.93
2022-12-19T18:03:44.967Z,7.45
2022-12-19T18:06:12.478Z,6.44
2022-12-19T18:08:39.170Z,7.75
2022-12-19T18:11:05.749Z,8.48
2022-12-19T18:13:32.140Z,8.05
2022-12-19T18:15:59.712Z,7.47
2022-12-19T18:18:27.154Z,6.34
2022-12-19T18:20:54.504Z,7.14
2022-12-19T18:23:22.246Z,7.46
2022-12-19T18:25:53.503Z,8.54
2022-12-19T18:28:23.219Z,9.53
2022-12-19T18:30:49.692Z,8.40
2022-12-19T18:33:16.168Z,8.15
2022-12-19T18:35:42.582Z,7.09
2022-12-19T18:38:10.139Z,7.67
2022-12-19T18:40:36.484Z,7.06
2022-12-19T18:43:02.834Z,6.61
2022-12-19T18:45:29.583Z,6.59
2022-12-19T18:47:56.155Z,6.83
2022-12-19T18:50:22.681Z,6.57
2022-12-19T18:52:49.060Z,7.34
2022-12-19T18:55:15.704Z,8.55
2022-12-19T18:57:42.082Z,9.59
2022-12-19T19:00:08.445Z,9.18
2022-12-19T19:02:35.187Z,8.96
2022-12-19T19:05:02.024Z,8.25
2022-12-19T19:07:29.435Z,8.03
2022-12-19T19:09:55.828Z,7.83
2022-12-19T19:12:22.517Z,8.68
2022-12-19T19:14:48.988Z,8.15
2022-12-19T19:17:15.473Z,8.23
2022-12-19T19:19:42.104Z,7.84
2022-12-19T19:22:08.574Z,7.44
2022-12-19T19:24:34.995Z,7.29
2022-12-19T19:27:01.486Z,7.61
2022-12-19T19:29:28.838Z,7.55
2022-12-19T19:31:55.531Z,7.89
2022-12-19T19:34:21.903Z,8.12
2022-12-19T19:36:48.298Z,7.38
2022-12-19T19:39:14.714Z,8.05
2022-12-19T19:41:41.511Z,7.44
2022-12-19T19:44:08.028Z,7.39
2022-12-19T19:46:34.712Z,6.76
2022-12-19T19:49:01.164Z,6.76
2022-12-19T19:51:27.563Z,7.05
2022-12-19T19:53:53.900Z,7.30
2022-12-19T19:56:20.282Z,7.33
2022-12-19T19:58:48.564Z,7.38
2022-12-19T20:01:14.978Z,7.62
2022-12-19T20:03:41.598Z,7.18
2022-12-19T20:06:08.036Z,7.23
2022-12-19T20:08:39.556Z,6.67
2022-12-19T20:11:06.734Z,7.82
2022-12-19T20:13:33.199Z,8.49
2022-12-19T20:15:59.804Z,8.06
2022-12-19T20:18:28.275Z,7.45
2022-12-19T20:20:55.331Z,7.68
2022-12-19T20:23:21.782Z,8.11
2022-12-19T20:25:48.193Z,8.17
2022-12-19T20:28:17.258Z,8.02
2022-12-19T20:30:48.471Z,7.36
2022-12-19T20:33:15.138Z,7.61
2022-12-19T20:35:41.515Z,7.93
2022-12-19T20:38:08.779Z,7.78
2022-12-19T20:40:35.665Z,7.74
2022-12-19T20:43:04.615Z,7.38
2022-12-19T20:45:32.467Z,7.00
2022-12-19T20:47:59.869Z,6.75
2022-12-19T20:50:26.374Z,7.32
2022-12-19T20:52:54.195Z,7.67
2022-12-19T20:55:21.667Z,7.71
2022-12-19T20:57:50.532Z,7.62
2022-12-19T21:00:16.917Z,7.79
2022-12-19T21:03:24.856Z,7.62
2022-12-19T21:05:32.499Z,7.39
2022-12-19T21:07:59.109Z,8.11
2022-12-19T21:10:25.853Z,7.64
2022-12-19T21:12:52.331Z,7.28
2022-12-19T21:15:18.726Z,7.34
2022-12-19T21:17:45.272Z,7.00
2022-12-19T21:20:11.759Z,7.18
2022-12-19T21:22:38.283Z,7.51
2022-12-19T21:25:05.439Z,7.19
2022-12-19T21:27:31.877Z,7.67
2022-12-19T21:29:58.349Z,7.25
2022-12-19T21:32:24.759Z,7.17
2022-12-19T21:34:53.514Z,7.33
2022-12-19T21:37:19.908Z,6.43
2022-12-19T21:39:47.105Z,5.92
2022-12-19T21:42:13.656Z,6.88
2022-12-19T21:44:40.216Z,6.24
2022-12-19T21:47:07.778Z,6.06
2022-12-19T21:49:34.507Z,7.35
2022-12-19T21:52:01.009Z,7.51
2022-12-19T21:54:27.655Z,7.45
2022-12-19T21:56:57.839Z,8.24
2022-12-19T21:59:24.253Z,7.70
2022-12-19T22:01:52.937Z,7.57
2022-12-19T22:04:19.537Z,8.07
2022-12-19T22:06:48.732Z,7.59
2022-12-19T22:09:15.104Z,7.81
2022-12-19T22:11:41.810Z,7.63
2022-12-19T22:14:10.318Z,7.72
2022-12-19T22:16:36.953Z,7.86
2022-12-19T22:19:03.959Z,7.89
2022-12-19T22:21:30.389Z,7.55
2022-12-19T22:26:37.404Z,7.65
2022-12-19T22:29:04.031Z,7.43
2022-12-19T22:31:32.384Z,7.52
2022-12-19T22:33:58.896Z,7.64
2022-12-19T22:36:28.787Z,7.33
2022-12-19T22:38:55.854Z,7.29
2022-12-19T22:41:22.294Z,7.20
2022-12-19T22:43:51.759Z,6.99
2022-12-19T22:46:25.788Z,7.94
2022-12-19T22:48:52.238Z,7.08
2022-12-19T22:51:19.413Z,7.44
2022-12-19T22:53:45.803Z,7.07
2022-12-19T22:56:12.290Z,7.12
2022-12-19T22:58:38.739Z,6.93
2022-12-19T23:01:05.123Z,6.51
2022-12-19T23:03:32.673Z,7.03
2022-12-19T23:05:59.141Z,7.52
2022-12-19T23:08:25.646Z,5.72
2022-12-19T23:10:52.263Z,5.15
2022-12-19T23:13:27.430Z,4.69
2022-12-19T23:15:57.819Z,4.51
2022-12-19T23:18:24.553Z,4.75
2022-12-19T23:20:52.262Z,4.69
2022-12-19T23:23:18.672Z,4.25
2022-12-19T23:25:47.618Z,4.42
2022-12-19T23:28:14.333Z,4.11
2022-12-19T23:33:21.944Z,3.51
2022-12-19T23:35:48.731Z,4.10
2022-12-19T23:38:15.192Z,5.41
2022-12-19T23:40:41.903Z,4.89
2022-12-19T23:43:11.025Z,5.46
2022-12-19T23:45:39.924Z,5.26
2022-12-19T23:48:07.571Z,6.41
2022-12-19T23:50:34.700Z,6.04
2022-12-19T23:53:01.407Z,5.31
2022-12-19T23:55:29.003Z,5.60
2022-12-19T23:57:56.745Z,5.86
